sensor_id;sensor_type;location;lat;lon;timestamp;pressure;altitude;pressure_sealevel;temperature;humidity
15007;BME280;7599;50.748;13.142;2023-03-13T00:00:19;94981.38;;;9.55;60.00
15007;BME280;7599;50.748;13.142;2023-03-13T00:03:23;94987.44;;;9.55;59.85
15007;BME280;7599;50.748;13.142;2023-03-13T00:06:29;94982.41;;;9.54;60.01
15007;BME280;7599;50.748;13.142;2023-03-13T00:09:33;94982.16;;;9.55;59.93
15007;BME280;7599;50.748;13.142;2023-03-13T00:12:35;94991.09;;;9.54;60.01
15007;BME280;7599;50.748;13.142;2023-03-13T00:15:38;94982.16;;;9.55;60.11
15007;BME280;7599;50.748;13.142;2023-03-13T00:18:45;94980.56;;;9.54;60.21
15007;BME280;7599;50.748;13.142;2023-03-13T00:21:48;94987.66;;;9.54;60.19
15007;BME280;7599;50.748;13.142;2023-03-13T00:24:50;94984.78;;;9.55;60.07
15007;BME280;7599;50.748;13.142;2023-03-13T00:27:53;94991.88;;;9.55;60.13
15007;BME280;7599;50.748;13.142;2023-03-13T00:31:03;94973.50;;;9.55;59.84
15007;BME280;7599;50.748;13.142;2023-03-13T00:34:07;94975.56;;;9.53;60.23
15007;BME280;7599;50.748;13.142;2023-03-13T00:37:10;94986.84;;;9.53;60.17
15007;BME280;7599;50.748;13.142;2023-03-13T00:40:13;94981.38;;;9.55;60.10
15007;BME280;7599;50.748;13.142;2023-03-13T00:43:15;94963.00;;;9.55;60.12
15007;BME280;7599;50.748;13.142;2023-03-13T00:46:20;94963.00;;;9.55;60.08
15007;BME280;7599;50.748;13.142;2023-03-13T00:49:24;94959.56;;;9.54;60.37
15007;BME280;7599;50.748;13.142;2023-03-13T00:52:27;94963.22;;;9.53;60.12
15007;BME280;7599;50.748;13.142;2023-03-13T00:55:29;94960.38;;;9.55;60.15
15007;BME280;7599;50.748;13.142;2023-03-13T00:58:33;94963.78;;;9.55;60.15
15007;BME280;7599;50.748;13.142;2023-03-13T01:01:36;94952.50;;;9.55;60.32
15007;BME280;7599;50.748;13.142;2023-03-13T01:04:40;94948.03;;;9.55;60.08
15007;BME280;7599;50.748;13.142;2023-03-13T01:07:43;94940.16;;;9.55;60.12
15007;BME280;7599;50.748;13.142;2023-03-13T01:10:45;94939.38;;;9.55;59.98
15007;BME280;7599;50.748;13.142;2023-03-13T01:13:48;94937.53;;;9.55;60.15
15007;BME280;7599;50.748;13.142;2023-03-13T01:16:51;94940.97;;;9.56;60.31
15007;BME280;7599;50.748;13.142;2023-03-13T01:19:55;94930.47;;;9.56;59.86
15007;BME280;7599;50.748;13.142;2023-03-13T01:22:58;94934.91;;;9.55;60.21
15007;BME280;7599;50.748;13.142;2023-03-13T01:26:03;94935.94;;;9.54;60.21
15007;BME280;7599;50.748;13.142;2023-03-13T01:29:06;94934.91;;;9.55;60.15
15007;BME280;7599;50.748;13.142;2023-03-13T01:32:08;94934.91;;;9.55;60.21
15007;BME280;7599;50.748;13.142;2023-03-13T01:35:13;94936.75;;;9.55;60.46
15007;BME280;7599;50.748;13.142;2023-03-13T01:38:16;94929.66;;;9.55;60.28
15007;BME280;7599;50.748;13.142;2023-03-13T01:41:19;94934.13;;;9.55;60.22
15007;BME280;7599;50.748;13.142;2023-03-13T01:44:24;94934.91;;;9.55;60.12
15007;BME280;7599;50.748;13.142;2023-03-13T01:47:27;94928.84;;;9.55;60.33
15007;BME280;7599;50.748;13.142;2023-03-13T01:50:31;94935.72;;;9.56;60.28
15007;BME280;7599;50.748;13.142;2023-03-13T01:53:36;94935.72;;;9.56;60.36
15007;BME280;7599;50.748;13.142;2023-03-13T01:56:43;94926.25;;;9.55;60.19
15007;BME280;7599;50.748;13.142;2023-03-13T01:59:52;94918.34;;;9.55;60.04
15007;BME280;7599;50.748;13.142;2023-03-13T02:03:00;94912.31;;;9.54;60.00
15007;BME280;7599;50.748;13.142;2023-03-13T02:06:07;94913.91;;;9.55;60.15
15007;BME280;7599;50.748;13.142;2023-03-13T02:09:13;94918.13;;;9.56;60.32
15007;BME280;7599;50.748;13.142;2023-03-13T02:12:23;94900.78;;;9.55;60.27
15007;BME280;7599;50.748;13.142;2023-03-13T02:15:29;94902.59;;;9.55;60.37
15007;BME280;7599;50.748;13.142;2023-03-13T02:18:32;94912.06;;;9.56;60.21
15007;BME280;7599;50.748;13.142;2023-03-13T02:21:41;94902.59;;;9.55;60.33
15007;BME280;7599;50.748;13.142;2023-03-13T02:24:48;94898.16;;;9.55;60.20
15007;BME280;7599;50.748;13.142;2023-03-13T02:27:57;94894.50;;;9.56;60.43
15007;BME280;7599;50.748;13.142;2023-03-13T02:31:02;94894.50;;;9.56;60.11
15007;BME280;7599;50.748;13.142;2023-03-13T02:34:04;94898.16;;;9.55;60.17
15007;BME280;7599;50.748;13.142;2023-03-13T02:37:07;94893.69;;;9.56;60.21
15007;BME280;7599;50.748;13.142;2023-03-13T02:40:15;94889.25;;;9.56;60.33
15007;BME280;7599;50.748;13.142;2023-03-13T02:43:26;94878.75;;;9.56;60.50
15007;BME280;7599;50.748;13.142;2023-03-13T02:46:42;94875.31;;;9.56;60.25
15007;BME280;7599;50.748;13.142;2023-03-13T02:49:46;94877.16;;;9.55;60.18
15007;BME280;7599;50.748;13.142;2023-03-13T02:52:51;94874.28;;;9.57;60.29
15007;BME280;7599;50.748;13.142;2023-03-13T02:55:55;94867.44;;;9.56;60.05
15007;BME280;7599;50.748;13.142;2023-03-13T02:58:59;94870.84;;;9.56;60.32
15007;BME280;7599;50.748;13.142;2023-03-13T03:02:02;94870.06;;;9.56;60.07
15007;BME280;7599;50.748;13.142;2023-03-13T03:05:05;94866.66;;;9.55;60.50
15007;BME280;7599;50.748;13.142;2023-03-13T03:08:08;94859.56;;;9.56;60.65
15007;BME280;7599;50.748;13.142;2023-03-13T03:11:11;94850.09;;;9.55;60.29
15007;BME280;7599;50.748;13.142;2023-03-13T03:14:15;94837.75;;;9.55;60.38
15007;BME280;7599;50.748;13.142;2023-03-13T03:17:18;94833.53;;;9.54;60.46
15007;BME280;7599;50.748;13.142;2023-03-13T03:20:21;94831.72;;;9.55;60.17
15007;BME280;7599;50.748;13.142;2023-03-13T03:23:23;94829.09;;;9.55;60.65
15007;BME280;7599;50.748;13.142;2023-03-13T03:26:26;94834.34;;;9.55;60.53
15007;BME280;7599;50.748;13.142;2023-03-13T03:29:30;94827.25;;;9.55;60.37
15007;BME280;7599;50.748;13.142;2023-03-13T03:32:33;94834.34;;;9.55;60.39
15007;BME280;7599;50.748;13.142;2023-03-13T03:35:35;94829.09;;;9.55;60.49
15007;BME280;7599;50.748;13.142;2023-03-13T03:38:39;94828.28;;;9.54;60.56
15007;BME280;7599;50.748;13.142;2023-03-13T03:41:42;94825.44;;;9.56;60.34
15007;BME280;7599;50.748;13.142;2023-03-13T03:44:47;94809.69;;;9.56;60.54
15007;BME280;7599;50.748;13.142;2023-03-13T03:47:49;94804.66;;;9.54;60.25
15007;BME280;7599;50.748;13.142;2023-03-13T03:50:52;94807.06;;;9.56;60.27
15007;BME280;7599;50.748;13.142;2023-03-13T03:53:56;94789.72;;;9.55;60.39
15007;BME280;7599;50.748;13.142;2023-03-13T03:56:59;94788.66;;;9.56;60.23
15007;BME280;7599;50.748;13.142;2023-03-13T04:00:05;94781.59;;;9.56;60.30
15007;BME280;7599;50.748;13.142;2023-03-13T04:03:08;94769.50;;;9.55;60.42
15007;BME280;7599;50.748;13.142;2023-03-13T04:06:11;94774.50;;;9.57;60.15
15007;BME280;7599;50.748;13.142;2023-03-13T04:09:16;94766.63;;;9.57;60.43
15007;BME280;7599;50.748;13.142;2023-03-13T04:12:19;94764.00;;;9.57;60.40
15007;BME280;7599;50.748;13.142;2023-03-13T04:15:23;94760.59;;;9.56;60.62
15007;BME280;7599;50.748;13.142;2023-03-13T04:18:25;94758.75;;;9.57;60.60
15007;BME280;7599;50.748;13.142;2023-03-13T04:21:28;94753.50;;;9.57;60.26
15007;BME280;7599;50.748;13.142;2023-03-13T04:24:30;94743.00;;;9.57;60.53
15007;BME280;7599;50.748;13.142;2023-03-13T04:27:33;94740.94;;;9.59;60.51
15007;BME280;7599;50.748;13.142;2023-03-13T04:30:37;94744.59;;;9.58;60.59
15007;BME280;7599;50.748;13.142;2023-03-13T04:33:40;94746.41;;;9.57;60.58
15007;BME280;7599;50.748;13.142;2023-03-13T04:36:46;94729.63;;;9.58;60.58
15007;BME280;7599;50.748;13.142;2023-03-13T04:39:48;94728.84;;;9.58;60.78
15007;BME280;7599;50.748;13.142;2023-03-13T04:42:52;94718.34;;;9.58;60.52
15007;BME280;7599;50.748;13.142;2023-03-13T04:45:56;94700.75;;;9.58;60.79
15007;BME280;7599;50.748;13.142;2023-03-13T04:48:58;94706.78;;;9.59;60.42
15007;BME280;7599;50.748;13.142;2023-03-13T04:52:01;94710.97;;;9.60;60.70
15007;BME280;7599;50.748;13.142;2023-03-13T04:55:04;94708.34;;;9.60;60.85
15007;BME280;7599;50.748;13.142;2023-03-13T04:58:07;94702.34;;;9.59;60.76
15007;BME280;7599;50.748;13.142;2023-03-13T05:01:11;94700.47;;;9.60;60.86
15007;BME280;7599;50.748;13.142;2023-03-13T05:04:14;94687.34;;;9.60;60.77
15007;BME280;7599;50.748;13.142;2023-03-13T05:07:17;94682.91;;;9.60;60.55
15007;BME280;7599;50.748;13.142;2023-03-13T05:10:19;94674.22;;;9.60;60.80
15007;BME280;7599;50.748;13.142;2023-03-13T05:13:22;94659.25;;;9.60;60.74
15007;BME280;7599;50.748;13.142;2023-03-13T05:16:26;94657.44;;;9.61;60.60
15007;BME280;7599;50.748;13.142;2023-03-13T05:19:29;94647.97;;;9.60;60.52
15007;BME280;7599;50.748;13.142;2023-03-13T05:22:31;94639.06;;;9.61;60.59
15007;BME280;7599;50.748;13.142;2023-03-13T05:25:34;94620.94;;;9.59;60.87
15007;BME280;7599;50.748;13.142;2023-03-13T05:28:37;94612.28;;;9.59;60.81
15007;BME280;7599;50.748;13.142;2023-03-13T05:31:41;94613.06;;;9.59;60.72
15007;BME280;7599;50.748;13.142;2023-03-13T05:34:44;94592.06;;;9.59;60.71
15007;BME280;7599;50.748;13.142;2023-03-13T05:37:46;94594.69;;;9.59;60.83
15007;BME280;7599;50.748;13.142;2023-03-13T05:40:49;94587.06;;;9.58;60.82
15007;BME280;7599;50.748;13.142;2023-03-13T05:43:51;94584.19;;;9.59;60.74
15007;BME280;7599;50.748;13.142;2023-03-13T05:46:55;94585.75;;;9.60;60.83
15007;BME280;7599;50.748;13.142;2023-03-13T05:49:58;94587.84;;;9.58;60.87
15007;BME280;7599;50.748;13.142;2023-03-13T05:53:00;94591.00;;;9.60;60.95
15007;BME280;7599;50.748;13.142;2023-03-13T05:56:03;94595.44;;;9.60;61.04
15007;BME280;7599;50.748;13.142;2023-03-13T05:59:06;94583.38;;;9.59;60.78
15007;BME280;7599;50.748;13.142;2023-03-13T06:02:10;94575.25;;;9.60;60.80
15007;BME280;7599;50.748;13.142;2023-03-13T06:05:13;94565.00;;;9.59;61.06
15007;BME280;7599;50.748;13.142;2023-03-13T06:08:16;94566.56;;;9.60;60.92
15007;BME280;7599;50.748;13.142;2023-03-13T06:11:22;94562.38;;;9.59;60.86
15007;BME280;7599;50.748;13.142;2023-03-13T06:14:24;94563.19;;;9.59;60.94
15007;BME280;7599;50.748;13.142;2023-03-13T06:17:28;94563.94;;;9.60;61.11
15007;BME280;7599;50.748;13.142;2023-03-13T06:20:31;94553.44;;;9.60;60.77
15007;BME280;7599;50.748;13.142;2023-03-13T06:23:34;94548.19;;;9.60;61.00
15007;BME280;7599;50.748;13.142;2023-03-13T06:26:37;94551.88;;;9.59;60.88
15007;BME280;7599;50.748;13.142;2023-03-13T06:29:39;94544.00;;;9.59;60.81
15007;BME280;7599;50.748;13.142;2023-03-13T06:32:44;94539.56;;;9.59;61.14
15007;BME280;7599;50.748;13.142;2023-03-13T06:35:47;94544.00;;;9.59;60.95
15007;BME280;7599;50.748;13.142;2023-03-13T06:38:57;94537.97;;;9.58;60.76
15007;BME280;7599;50.748;13.142;2023-03-13T06:42:00;94536.94;;;9.59;60.63
15007;BME280;7599;50.748;13.142;2023-03-13T06:45:03;94535.06;;;9.60;61.00
15007;BME280;7599;50.748;13.142;2023-03-13T06:48:08;94521.94;;;9.60;60.75
15007;BME280;7599;50.748;13.142;2023-03-13T06:51:10;94492.28;;;9.59;61.18
15007;BME280;7599;50.748;13.142;2023-03-13T06:54:14;94511.44;;;9.60;60.93
15007;BME280;7599;50.748;13.142;2023-03-13T06:57:16;94502.78;;;9.59;60.92
15007;BME280;7599;50.748;13.142;2023-03-13T07:00:20;94500.94;;;9.60;61.11
15007;BME280;7599;50.748;13.142;2023-03-13T07:03:24;94498.31;;;9.60;61.36
15007;BME280;7599;50.748;13.142;2023-03-13T07:06:26;94502.50;;;9.61;61.20
15007;BME280;7599;50.748;13.142;2023-03-13T07:09:29;94490.97;;;9.62;61.23
15007;BME280;7599;50.748;13.142;2023-03-13T07:12:33;94495.44;;;9.61;61.28
15007;BME280;7599;50.748;13.142;2023-03-13T07:15:35;94479.94;;;9.60;61.33
15007;BME280;7599;50.748;13.142;2023-03-13T07:18:40;94475.47;;;9.60;61.54
15007;BME280;7599;50.748;13.142;2023-03-13T07:21:45;94464.97;;;9.60;61.34
15007;BME280;7599;50.748;13.142;2023-03-13T07:24:47;94461.53;;;9.60;61.28
15007;BME280;7599;50.748;13.142;2023-03-13T07:27:50;94457.09;;;9.60;61.30
15007;BME280;7599;50.748;13.142;2023-03-13T07:30:53;94459.47;;;9.62;61.44
15007;BME280;7599;50.748;13.142;2023-03-13T07:33:57;94450.00;;;9.61;61.40
15007;BME280;7599;50.748;13.142;2023-03-13T07:37:00;94446.34;;;9.62;61.34
15007;BME280;7599;50.748;13.142;2023-03-13T07:40:04;94438.47;;;9.62;61.30
15007;BME280;7599;50.748;13.142;2023-03-13T07:43:06;94436.63;;;9.62;61.41
15007;BME280;7599;50.748;13.142;2023-03-13T07:46:11;94447.91;;;9.63;61.18
15007;BME280;7599;50.748;13.142;2023-03-13T07:49:15;94437.41;;;9.63;61.10
15007;BME280;7599;50.748;13.142;2023-03-13T07:52:18;94434.78;;;9.63;61.23
15007;BME280;7599;50.748;13.142;2023-03-13T07:55:21;94426.91;;;9.63;61.16
15007;BME280;7599;50.748;13.142;2023-03-13T07:58:24;94438.22;;;9.63;61.23
15007;BME280;7599;50.748;13.142;2023-03-13T08:01:27;94446.88;;;9.64;61.19
15007;BME280;7599;50.748;13.142;2023-03-13T08:04:33;94451.34;;;9.63;61.07
15007;BME280;7599;50.748;13.142;2023-03-13T08:07:35;94445.28;;;9.63;61.35
15007;BME280;7599;50.748;13.142;2023-03-13T08:10:38;94441.88;;;9.62;61.15
15007;BME280;7599;50.748;13.142;2023-03-13T08:13:42;94473.38;;;9.62;61.16
15007;BME280;7599;50.748;13.142;2023-03-13T08:16:45;94490.97;;;9.62;61.33
15007;BME280;7599;50.748;13.142;2023-03-13T08:19:49;94503.31;;;9.61;61.39
15007;BME280;7599;50.748;13.142;2023-03-13T08:22:54;94501.47;;;9.62;61.23
15007;BME280;7599;50.748;13.142;2023-03-13T08:26:01;94498.84;;;9.62;60.94
15007;BME280;7599;50.748;13.142;2023-03-13T08:29:05;94487.81;;;9.60;61.14
15007;BME280;7599;50.748;13.142;2023-03-13T08:32:08;94502.50;;;9.61;61.40
15007;BME280;7599;50.748;13.142;2023-03-13T08:35:13;94495.44;;;9.61;61.05
15007;BME280;7599;50.748;13.142;2023-03-13T08:38:16;94467.59;;;9.60;61.30
15007;BME280;7599;50.748;13.142;2023-03-13T08:41:21;94472.59;;;9.62;61.19
15007;BME280;7599;50.748;13.142;2023-03-13T08:44:24;94474.66;;;9.60;60.79
15007;BME280;7599;50.748;13.142;2023-03-13T08:47:27;94451.59;;;9.62;61.07
15007;BME280;7599;50.748;13.142;2023-03-13T08:50:32;94445.53;;;9.61;61.16
15007;BME280;7599;50.748;13.142;2023-03-13T08:53:35;94448.16;;;9.61;61.09
15007;BME280;7599;50.748;13.142;2023-03-13T08:56:38;94450.00;;;9.61;61.35
15007;BME280;7599;50.748;13.142;2023-03-13T08:59:41;94449.22;;;9.60;61.31
15007;BME280;7599;50.748;13.142;2023-03-13T09:02:44;94462.09;;;9.62;61.48
15007;BME280;7599;50.748;13.142;2023-03-13T09:05:48;94462.09;;;9.62;61.74
15007;BME280;7599;50.748;13.142;2023-03-13T09:08:56;94452.63;;;9.61;61.51
15007;BME280;7599;50.748;13.142;2023-03-13T09:11:59;94445.78;;;9.60;61.47
15007;BME280;7599;50.748;13.142;2023-03-13T09:15:03;94451.59;;;9.62;61.54
15007;BME280;7599;50.748;13.142;2023-03-13T09:18:05;94451.59;;;9.62;61.64
15007;BME280;7599;50.748;13.142;2023-03-13T09:21:13;94453.19;;;9.63;61.69
15007;BME280;7599;50.748;13.142;2023-03-13T09:24:16;94441.09;;;9.62;61.49
15007;BME280;7599;50.748;13.142;2023-03-13T09:27:20;94435.84;;;9.62;61.88
15007;BME280;7599;50.748;13.142;2023-03-13T09:30:22;94429.53;;;9.63;61.53
15007;BME280;7599;50.748;13.142;2023-03-13T09:33:25;94426.91;;;9.63;61.37
15007;BME280;7599;50.748;13.142;2023-03-13T09:36:30;94427.72;;;9.63;61.73
15007;BME280;7599;50.748;13.142;2023-03-13T09:39:32;94422.47;;;9.63;61.60
15007;BME280;7599;50.748;13.142;2023-03-13T09:42:43;94421.41;;;9.64;61.28
15007;BME280;7599;50.748;13.142;2023-03-13T09:45:48;94436.38;;;9.64;61.24
15007;BME280;7599;50.748;13.142;2023-03-13T09:48:52;94416.41;;;9.63;61.54
15007;BME280;7599;50.748;13.142;2023-03-13T09:52:11;94416.41;;;9.63;61.60
15007;BME280;7599;50.748;13.142;2023-03-13T09:55:19;94412.75;;;9.64;61.47
15007;BME280;7599;50.748;13.142;2023-03-13T09:58:24;94420.88;;;9.62;61.52
15007;BME280;7599;50.748;13.142;2023-03-13T10:01:29;94413.78;;;9.63;61.69
15007;BME280;7599;50.748;13.142;2023-03-13T10:04:37;94417.22;;;9.63;61.60
15007;BME280;7599;50.748;13.142;2023-03-13T10:07:43;94419.03;;;9.63;61.54
15007;BME280;7599;50.748;13.142;2023-03-13T10:10:48;94418.00;;;9.64;61.52
15007;BME280;7599;50.748;13.142;2023-03-13T10:13:58;94415.38;;;9.64;61.78
15007;BME280;7599;50.748;13.142;2023-03-13T10:17:06;94405.66;;;9.64;61.71
15007;BME280;7599;50.748;13.142;2023-03-13T10:20:21;94398.56;;;9.65;61.79
15007;BME280;7599;50.748;13.142;2023-03-13T10:23:34;94402.25;;;9.64;61.67
15007;BME280;7599;50.748;13.142;2023-03-13T10:26:40;94401.22;;;9.65;61.57
15007;BME280;7599;50.748;13.142;2023-03-13T10:29:43;94386.25;;;9.65;61.83
15007;BME280;7599;50.748;13.142;2023-03-13T10:32:45;94407.25;;;9.65;61.63
15007;BME280;7599;50.748;13.142;2023-03-13T10:36:04;94399.38;;;9.65;61.70
15007;BME280;7599;50.748;13.142;2023-03-13T10:39:14;94386.00;;;9.67;61.98
15007;BME280;7599;50.748;13.142;2023-03-13T10:42:24;94395.69;;;9.66;61.98
15007;BME280;7599;50.748;13.142;2023-03-13T10:45:31;94386.00;;;9.67;61.88
15007;BME280;7599;50.748;13.142;2023-03-13T10:48:36;94408.84;;;9.66;62.06
15007;BME280;7599;50.748;13.142;2023-03-13T10:51:46;94423.78;;;9.66;62.40
15007;BME280;7599;50.748;13.142;2023-03-13T10:54:58;94420.91;;;9.67;62.18
15007;BME280;7599;50.748;13.142;2023-03-13T10:58:03;94402.53;;;9.67;61.84
15007;BME280;7599;50.748;13.142;2023-03-13T11:01:17;94396.50;;;9.67;62.05
15007;BME280;7599;50.748;13.142;2023-03-13T11:04:29;94401.75;;;9.67;62.28
15007;BME280;7599;50.748;13.142;2023-03-13T11:07:34;94402.53;;;9.67;62.28
15007;BME280;7599;50.748;13.142;2023-03-13T11:10:50;94424.34;;;9.68;62.11
15007;BME280;7599;50.748;13.142;2023-03-13T11:13:53;94432.47;;;9.66;61.91
15007;BME280;7599;50.748;13.142;2023-03-13T11:17:00;94433.00;;;9.68;62.16
15007;BME280;7599;50.748;13.142;2023-03-13T11:20:10;94404.38;;;9.67;61.90
15007;BME280;7599;50.748;13.142;2023-03-13T11:23:19;94426.16;;;9.67;62.16
15007;BME280;7599;50.748;13.142;2023-03-13T11:26:29;94413.84;;;9.68;62.42
15007;BME280;7599;50.748;13.142;2023-03-13T11:29:41;94418.28;;;9.67;62.25
15007;BME280;7599;50.748;13.142;2023-03-13T11:32:50;94424.34;;;9.68;62.48
15007;BME280;7599;50.748;13.142;2023-03-13T11:35:59;94434.03;;;9.67;62.40
15007;BME280;7599;50.748;13.142;2023-03-13T11:39:15;94432.22;;;9.68;62.09
15007;BME280;7599;50.748;13.142;2023-03-13T11:42:45;94440.09;;;9.68;62.43
15007;BME280;7599;50.748;13.142;2023-03-13T11:46:09;94423.53;;;9.67;62.77
15007;BME280;7599;50.748;13.142;2023-03-13T11:53:54;94421.72;;;9.68;62.59
15007;BME280;7599;50.748;13.142;2023-03-13T11:57:46;94409.63;;;9.67;62.62
15007;BME280;7599;50.748;13.142;2023-03-13T12:09:31;94387.56;;;9.68;62.66
15007;BME280;7599;50.748;13.142;2023-03-13T12:22:11;94363.94;;;9.68;62.81
15007;BME280;7599;50.748;13.142;2023-03-13T12:43:43;94380.25;;;9.70;62.94
15007;BME280;7599;50.748;13.142;2023-03-13T12:47:08;94375.78;;;9.70;62.78
15007;BME280;7599;50.748;13.142;2023-03-13T12:50:23;94366.03;;;9.71;62.80
15007;BME280;7599;50.748;13.142;2023-03-13T12:53:49;94365.78;;;9.72;62.63
15007;BME280;7599;50.748;13.142;2023-03-13T12:57:11;94363.41;;;9.71;62.93
15007;BME280;7599;50.748;13.142;2023-03-13T13:00:20;94370.00;;;9.73;62.90
15007;BME280;7599;50.748;13.142;2023-03-13T13:03:29;94363.41;;;9.71;62.79
15007;BME280;7599;50.748;13.142;2023-03-13T13:06:57;94364.75;;;9.73;62.74
15007;BME280;7599;50.748;13.142;2023-03-13T13:10:15;94354.00;;;9.75;62.87
15007;BME280;7599;50.748;13.142;2023-03-13T13:13:28;94345.56;;;9.73;62.77
15007;BME280;7599;50.748;13.142;2023-03-13T13:16:33;94340.06;;;9.74;62.89
15007;BME280;7599;50.748;13.142;2023-03-13T13:19:43;94332.97;;;9.75;62.88
15007;BME280;7599;50.748;13.142;2023-03-13T13:22:46;94334.56;;;9.76;62.80
15007;BME280;7599;50.748;13.142;2023-03-13T13:25:54;94326.94;;;9.74;62.62
15007;BME280;7599;50.748;13.142;2023-03-13T13:28:58;94318.53;;;9.72;62.66
15007;BME280;7599;50.748;13.142;2023-03-13T13:32:03;94321.94;;;9.73;63.07
15007;BME280;7599;50.748;13.142;2023-03-13T13:38:34;94332.44;;;9.73;63.10
15007;BME280;7599;50.748;13.142;2023-03-13T13:41:41;94329.28;;;9.71;63.21
15007;BME280;7599;50.748;13.142;2023-03-13T13:44:56;94318.78;;;9.71;63.19
15007;BME280;7599;50.748;13.142;2023-03-13T13:48:31;94323.25;;;9.70;63.39
15007;BME280;7599;50.748;13.142;2023-03-13T13:51:36;94318.78;;;9.71;63.37
15007;BME280;7599;50.748;13.142;2023-03-13T13:54:53;94312.75;;;9.70;63.38
15007;BME280;7599;50.748;13.142;2023-03-13T13:57:58;94326.41;;;9.72;63.57
15007;BME280;7599;50.748;13.142;2023-03-13T14:01:04;94306.44;;;9.71;63.43
15007;BME280;7599;50.748;13.142;2023-03-13T14:04:15;94313.53;;;9.71;63.37
15007;BME280;7599;50.748;13.142;2023-03-13T14:07:22;94309.84;;;9.72;63.35
15007;BME280;7599;50.748;13.142;2023-03-13T14:10:33;94318.53;;;9.72;63.60
15007;BME280;7599;50.748;13.142;2023-03-13T14:13:36;94322.97;;;9.72;63.57
15007;BME280;7599;50.748;13.142;2023-03-13T14:16:42;94298.31;;;9.73;63.58
15007;BME280;7599;50.748;13.142;2023-03-13T14:19:48;94282.53;;;9.73;63.62
15007;BME280;7599;50.748;13.142;2023-03-13T14:22:51;94285.16;;;9.73;63.53
15007;BME280;7599;50.748;13.142;2023-03-13T14:25:54;94282.81;;;9.71;63.89
15007;BME280;7599;50.748;13.142;2023-03-13T14:28:58;94290.69;;;9.71;63.65
15007;BME280;7599;50.748;13.142;2023-03-13T14:32:01;94279.38;;;9.71;63.70
15007;BME280;7599;50.748;13.142;2023-03-13T14:35:07;94291.00;;;9.80;64.15
15007;BME280;7599;50.748;13.142;2023-03-13T14:38:18;94294.66;;;9.84;64.67
15007;BME280;7599;50.748;13.142;2023-03-13T14:41:28;94288.13;;;9.87;64.79
15007;BME280;7599;50.748;13.142;2023-03-13T14:44:32;94281.81;;;9.88;65.14
15007;BME280;7599;50.748;13.142;2023-03-13T14:47:36;94287.63;;;9.90;65.57
15007;BME280;7599;50.748;13.142;2023-03-13T14:50:41;94265.31;;;9.92;65.90
15007;BME280;7599;50.748;13.142;2023-03-13T14:53:54;94270.28;;;9.94;65.13
15007;BME280;7599;50.748;13.142;2023-03-13T14:57:18;94272.66;;;9.90;65.12
15007;BME280;7599;50.748;13.142;2023-03-13T15:00:31;94263.97;;;9.90;64.82
15007;BME280;7599;50.748;13.142;2023-03-13T15:03:34;94262.66;;;9.87;64.74
15007;BME280;7599;50.748;13.142;2023-03-13T15:06:38;94244.75;;;9.84;64.61
15007;BME280;7599;50.748;13.142;2023-03-13T15:09:41;94237.69;;;9.84;64.57
15007;BME280;7599;50.748;13.142;2023-03-13T15:12:44;94230.84;;;9.83;64.68
15007;BME280;7599;50.748;13.142;2023-03-13T15:15:47;94236.09;;;9.83;64.71
15007;BME280;7599;50.748;13.142;2023-03-13T15:18:51;94237.94;;;9.83;64.51
15007;BME280;7599;50.748;13.142;2023-03-13T15:21:55;94227.72;;;9.81;64.78
15007;BME280;7599;50.748;13.142;2023-03-13T15:24:58;94217.22;;;9.81;64.75
15007;BME280;7599;50.748;13.142;2023-03-13T15:28:13;94216.41;;;9.81;64.62
15007;BME280;7599;50.748;13.142;2023-03-13T15:31:17;94217.97;;;9.82;64.57
15007;BME280;7599;50.748;13.142;2023-03-13T15:34:21;94213.00;;;9.80;64.71
15007;BME280;7599;50.748;13.142;2023-03-13T15:37:27;94198.03;;;9.81;64.82
15007;BME280;7599;50.748;13.142;2023-03-13T15:40:30;94189.38;;;9.80;64.79
15007;BME280;7599;50.748;13.142;2023-03-13T15:43:33;94180.69;;;9.80;64.72
15007;BME280;7599;50.748;13.142;2023-03-13T15:46:36;94171.78;;;9.81;64.65
15007;BME280;7599;50.748;13.142;2023-03-13T15:49:39;94165.72;;;9.80;64.85
15007;BME280;7599;50.748;13.142;2023-03-13T15:52:43;94149.97;;;9.80;64.76
15007;BME280;7599;50.748;13.142;2023-03-13T15:55:46;94151.56;;;9.81;64.70
15007;BME280;7599;50.748;13.142;2023-03-13T15:58:50;94148.13;;;9.81;64.62
15007;BME280;7599;50.748;13.142;2023-03-13T16:01:52;94132.38;;;9.81;64.62
15007;BME280;7599;50.748;13.142;2023-03-13T16:04:55;94121.88;;;9.81;64.94
15007;BME280;7599;50.748;13.142;2023-03-13T16:07:59;94120.78;;;9.82;64.75
15007;BME280;7599;50.748;13.142;2023-03-13T16:11:02;94120.78;;;9.82;64.57
15007;BME280;7599;50.748;13.142;2023-03-13T16:14:05;94109.53;;;9.81;64.68
15007;BME280;7599;50.748;13.142;2023-03-13T16:17:12;94105.03;;;9.82;64.56
15007;BME280;7599;50.748;13.142;2023-03-13T16:20:23;94094.53;;;9.82;64.83
15007;BME280;7599;50.748;13.142;2023-03-13T16:23:31;94092.69;;;9.82;65.04
15007;BME280;7599;50.748;13.142;2023-03-13T16:26:37;94090.84;;;9.83;64.81
15007;BME280;7599;50.748;13.142;2023-03-13T16:29:40;94081.13;;;9.83;64.79
15007;BME280;7599;50.748;13.142;2023-03-13T16:32:44;94078.50;;;9.83;64.93
15007;BME280;7599;50.748;13.142;2023-03-13T16:35:53;94083.78;;;9.83;64.91
15007;BME280;7599;50.748;13.142;2023-03-13T16:39:06;94065.38;;;9.83;64.77
15007;BME280;7599;50.748;13.142;2023-03-13T16:42:13;94068.81;;;9.84;64.94
15007;BME280;7599;50.748;13.142;2023-03-13T16:45:24;94067.22;;;9.83;65.03
15007;BME280;7599;50.748;13.142;2023-03-13T16:48:28;94068.00;;;9.83;64.96
15007;BME280;7599;50.748;13.142;2023-03-13T16:51:33;94061.72;;;9.84;64.74
15007;BME280;7599;50.748;13.142;2023-03-13T16:54:37;94060.91;;;9.84;64.76
15007;BME280;7599;50.748;13.142;2023-03-13T16:57:40;94066.97;;;9.84;64.89
15007;BME280;7599;50.748;13.142;2023-03-13T17:00:43;94081.94;;;9.84;64.94
15007;BME280;7599;50.748;13.142;2023-03-13T17:04:03;94078.25;;;9.85;64.84
15007;BME280;7599;50.748;13.142;2023-03-13T17:07:12;94075.63;;;9.85;64.86
15007;BME280;7599;50.748;13.142;2023-03-13T17:10:21;94073.00;;;9.85;65.04
15007;BME280;7599;50.748;13.142;2023-03-13T17:13:24;94073.00;;;9.85;65.00
15007;BME280;7599;50.748;13.142;2023-03-13T17:16:29;94077.47;;;9.84;64.75
15007;BME280;7599;50.748;13.142;2023-03-13T17:19:33;94080.88;;;9.85;64.83